sensor_id;sensor_type;location;lat;lon;timestamp;P1;durP1;ratioP1;P2;durP2;ratioP2
71715;SDS011;59568;52.128;5.434;2022-12-18T00:01:29;37.20;;;13.83;;
71715;SDS011;59568;52.128;5.434;2022-12-18T00:04:01;34.72;;;13.00;;
71715;SDS011;59568;52.128;5.434;2022-12-18T00:06:29;36.45;;;13.55;;
71715;SDS011;59568;52.128;5.434;2022-12-18T00:08:57;35.65;;;13.45;;
71715;SDS011;59568;52.128;5.434;2022-12-18T00:11:25;35.22;;;13.23;;
71715;SDS011;59568;52.128;5.434;2022-12-18T00:13:54;41.47;;;14.37;;
71715;SDS011;59568;52.128;5.434;2022-12-18T00:16:23;38.25;;;14.15;;
71715;SDS011;59568;52.128;5.434;2022-12-18T00:18:51;31.63;;;13.60;;
71715;SDS011;59568;52.128;5.434;2022-12-18T00:21:20;41.90;;;15.80;;
71715;SDS011;59568;52.128;5.434;2022-12-18T00:23:48;40.38;;;14.13;;
71715;SDS011;59568;52.128;5.434;2022-12-18T00:26:17;36.77;;;14.43;;
71715;SDS011;59568;52.128;5.434;2022-12-18T00:28:48;38.25;;;13.50;;
71715;SDS011;59568;52.128;5.434;2022-12-18T00:31:17;36.10;;;14.23;;
71715;SDS011;59568;52.128;5.434;2022-12-18T00:33:45;40.03;;;14.85;;
71715;SDS011;59568;52.128;5.434;2022-12-18T00:36:15;36.58;;;14.02;;
71715;SDS011;59568;52.128;5.434;2022-12-18T00:38:44;43.33;;;14.67;;
71715;SDS011;59568;52.128;5.434;2022-12-18T00:41:11;40.63;;;13.20;;
71715;SDS011;59568;52.128;5.434;2022-12-18T00:43:39;36.65;;;14.10;;
71715;SDS011;59568;52.128;5.434;2022-12-18T00:46:06;39.60;;;14.40;;
71715;SDS011;59568;52.128;5.434;2022-12-18T00:48:33;38.05;;;15.18;;
71715;SDS011;59568;52.128;5.434;2022-12-18T00:50:59;41.60;;;15.63;;
71715;SDS011;59568;52.128;5.434;2022-12-18T00:53:26;43.53;;;16.13;;
71715;SDS011;59568;52.128;5.434;2022-12-18T00:55:52;35.33;;;13.75;;
71715;SDS011;59568;52.128;5.434;2022-12-18T00:58:19;44.47;;;15.20;;
71715;SDS011;59568;52.128;5.434;2022-12-18T01:00:45;33.85;;;14.23;;
71715;SDS011;59568;52.128;5.434;2022-12-18T01:03:12;41.87;;;14.87;;
71715;SDS011;59568;52.128;5.434;2022-12-18T01:05:41;39.20;;;14.02;;
71715;SDS011;59568;52.128;5.434;2022-12-18T01:08:08;35.28;;;14.35;;
71715;SDS011;59568;52.128;5.434;2022-12-18T01:10:35;37.33;;;15.63;;
71715;SDS011;59568;52.128;5.434;2022-12-18T01:13:01;35.85;;;13.93;;
71715;SDS011;59568;52.128;5.434;2022-12-18T01:15:28;37.87;;;14.33;;
71715;SDS011;59568;52.128;5.434;2022-12-18T01:17:54;41.80;;;13.80;;
71715;SDS011;59568;52.128;5.434;2022-12-18T01:20:21;47.30;;;15.85;;
71715;SDS011;59568;52.128;5.434;2022-12-18T01:22:47;39.90;;;14.20;;
71715;SDS011;59568;52.128;5.434;2022-12-18T01:25:14;35.53;;;14.05;;
71715;SDS011;59568;52.128;5.434;2022-12-18T01:27:40;41.10;;;13.57;;
71715;SDS011;59568;52.128;5.434;2022-12-18T01:30:07;31.35;;;11.93;;
71715;SDS011;59568;52.128;5.434;2022-12-18T01:32:34;36.60;;;14.98;;
71715;SDS011;59568;52.128;5.434;2022-12-18T01:35:00;38.67;;;14.70;;
71715;SDS011;59568;52.128;5.434;2022-12-18T01:37:27;37.30;;;13.60;;
71715;SDS011;59568;52.128;5.434;2022-12-18T01:39:53;29.87;;;13.30;;
71715;SDS011;59568;52.128;5.434;2022-12-18T01:42:20;30.20;;;12.77;;
71715;SDS011;59568;52.128;5.434;2022-12-18T01:47:43;37.90;;;14.45;;
71715;SDS011;59568;52.128;5.434;2022-12-18T01:50:23;39.88;;;14.55;;
71715;SDS011;59568;52.128;5.434;2022-12-18T01:52:58;31.43;;;12.60;;
71715;SDS011;59568;52.128;5.434;2022-12-18T01:55:41;35.72;;;12.65;;
71715;SDS011;59568;52.128;5.434;2022-12-18T01:58:11;36.03;;;13.25;;
71715;SDS011;59568;52.128;5.434;2022-12-18T02:00:38;38.50;;;13.25;;
71715;SDS011;59568;52.128;5.434;2022-12-18T02:03:04;33.08;;;13.82;;
71715;SDS011;59568;52.128;5.434;2022-12-18T02:14:48;33.85;;;13.60;;
71715;SDS011;59568;52.128;5.434;2022-12-18T02:17:23;36.53;;;12.55;;
71715;SDS011;59568;52.128;5.434;2022-12-18T02:27:46;31.45;;;12.25;;
71715;SDS011;59568;52.128;5.434;2022-12-18T02:30:15;30.83;;;12.88;;
71715;SDS011;59568;52.128;5.434;2022-12-18T02:32:43;28.47;;;13.00;;
71715;SDS011;59568;52.128;5.434;2022-12-18T02:35:17;34.42;;;12.73;;
71715;SDS011;59568;52.128;5.434;2022-12-18T02:37:48;32.08;;;12.48;;
71715;SDS011;59568;52.128;5.434;2022-12-18T02:40:15;32.08;;;12.93;;
71715;SDS011;59568;52.128;5.434;2022-12-18T02:42:43;28.83;;;12.80;;
71715;SDS011;59568;52.128;5.434;2022-12-18T02:45:09;32.53;;;12.30;;
71715;SDS011;59568;52.128;5.434;2022-12-18T02:47:37;32.50;;;12.75;;
71715;SDS011;59568;52.128;5.434;2022-12-18T02:53:21;26.95;;;11.18;;
71715;SDS011;59568;52.128;5.434;2022-12-18T02:56:07;32.67;;;13.30;;
71715;SDS011;59568;52.128;5.434;2022-12-18T03:04:02;30.52;;;11.75;;
71715;SDS011;59568;52.128;5.434;2022-12-18T03:06:38;29.33;;;12.30;;
71715;SDS011;59568;52.128;5.434;2022-12-18T03:09:12;32.72;;;11.25;;
71715;SDS011;59568;52.128;5.434;2022-12-18T03:11:44;24.40;;;11.13;;
71715;SDS011;59568;52.128;5.434;2022-12-18T03:14:35;24.48;;;9.50;;
71715;SDS011;59568;52.128;5.434;2022-12-18T03:17:04;36.03;;;11.45;;
71715;SDS011;59568;52.128;5.434;2022-12-18T03:19:36;28.38;;;10.07;;
71715;SDS011;59568;52.128;5.434;2022-12-18T03:22:05;26.08;;;12.20;;
71715;SDS011;59568;52.128;5.434;2022-12-18T03:24:34;24.87;;;10.53;;
71715;SDS011;59568;52.128;5.434;2022-12-18T03:27:06;28.60;;;10.93;;
71715;SDS011;59568;52.128;5.434;2022-12-18T03:29:38;31.52;;;11.70;;
71715;SDS011;59568;52.128;5.434;2022-12-18T03:32:12;23.90;;;10.60;;
71715;SDS011;59568;52.128;5.434;2022-12-18T03:34:45;24.42;;;10.85;;
71715;SDS011;59568;52.128;5.434;2022-12-18T03:37:15;25.03;;;10.20;;
71715;SDS011;59568;52.128;5.434;2022-12-18T03:39:42;25.85;;;10.93;;
71715;SDS011;59568;52.128;5.434;2022-12-18T03:42:23;30.65;;;11.20;;
71715;SDS011;59568;52.128;5.434;2022-12-18T03:50:54;22.20;;;9.47;;
71715;SDS011;59568;52.128;5.434;2022-12-18T03:53:26;22.20;;;9.43;;
71715;SDS011;59568;52.128;5.434;2022-12-18T03:55:57;23.98;;;10.00;;
71715;SDS011;59568;52.128;5.434;2022-12-18T03:58:26;25.65;;;10.70;;
71715;SDS011;59568;52.128;5.434;2022-12-18T04:00:55;22.55;;;9.70;;
71715;SDS011;59568;52.128;5.434;2022-12-18T04:03:25;22.47;;;9.67;;
71715;SDS011;59568;52.128;5.434;2022-12-18T04:05:54;24.20;;;9.68;;
71715;SDS011;59568;52.128;5.434;2022-12-18T04:08:23;25.23;;;10.35;;
71715;SDS011;59568;52.128;5.434;2022-12-18T04:10:50;21.00;;;9.77;;
71715;SDS011;59568;52.128;5.434;2022-12-18T04:13:24;20.25;;;8.98;;
71715;SDS011;59568;52.128;5.434;2022-12-18T04:15:54;19.90;;;9.00;;
71715;SDS011;59568;52.128;5.434;2022-12-18T04:18:20;19.17;;;8.40;;
71715;SDS011;59568;52.128;5.434;2022-12-18T04:20:47;26.00;;;10.77;;
71715;SDS011;59568;52.128;5.434;2022-12-18T04:23:13;21.73;;;9.63;;
71715;SDS011;59568;52.128;5.434;2022-12-18T04:25:40;24.20;;;10.60;;
71715;SDS011;59568;52.128;5.434;2022-12-18T04:28:06;22.20;;;9.43;;
71715;SDS011;59568;52.128;5.434;2022-12-18T04:30:33;25.55;;;9.93;;
71715;SDS011;59568;52.128;5.434;2022-12-18T04:32:59;29.60;;;12.00;;
71715;SDS011;59568;52.128;5.434;2022-12-18T04:35:26;23.98;;;9.52;;
71715;SDS011;59568;52.128;5.434;2022-12-18T04:37:53;22.63;;;9.25;;
71715;SDS011;59568;52.128;5.434;2022-12-18T04:40:19;20.87;;;9.97;;
71715;SDS011;59568;52.128;5.434;2022-12-18T04:42:45;18.42;;;8.02;;
71715;SDS011;59568;52.128;5.434;2022-12-18T04:45:12;17.60;;;7.82;;
71715;SDS011;59568;52.128;5.434;2022-12-18T04:47:38;19.65;;;9.48;;
71715;SDS011;59568;52.128;5.434;2022-12-18T04:50:05;17.90;;;8.48;;
71715;SDS011;59568;52.128;5.434;2022-12-18T04:52:32;20.80;;;8.57;;
71715;SDS011;59568;52.128;5.434;2022-12-18T04:54:58;20.65;;;7.72;;
71715;SDS011;59568;52.128;5.434;2022-12-18T04:57:25;18.38;;;8.20;;
71715;SDS011;59568;52.128;5.434;2022-12-18T04:59:52;16.17;;;7.80;;
71715;SDS011;59568;52.128;5.434;2022-12-18T05:02:18;17.77;;;8.32;;
71715;SDS011;59568;52.128;5.434;2022-12-18T05:04:45;12.63;;;7.03;;
71715;SDS011;59568;52.128;5.434;2022-12-18T05:07:11;16.30;;;7.00;;
71715;SDS011;59568;52.128;5.434;2022-12-18T05:09:38;16.90;;;7.88;;
71715;SDS011;59568;52.128;5.434;2022-12-18T05:12:04;15.57;;;7.25;;
71715;SDS011;59568;52.128;5.434;2022-12-18T05:14:31;16.58;;;8.70;;
71715;SDS011;59568;52.128;5.434;2022-12-18T05:16:57;11.77;;;6.40;;
71715;SDS011;59568;52.128;5.434;2022-12-18T05:19:26;13.98;;;7.60;;
71715;SDS011;59568;52.128;5.434;2022-12-18T05:21:52;15.18;;;6.85;;
71715;SDS011;59568;52.128;5.434;2022-12-18T05:24:19;17.75;;;7.70;;
71715;SDS011;59568;52.128;5.434;2022-12-18T05:26:45;11.75;;;7.20;;
71715;SDS011;59568;52.128;5.434;2022-12-18T05:29:12;20.33;;;7.63;;
71715;SDS011;59568;52.128;5.434;2022-12-18T05:31:39;20.92;;;8.20;;
71715;SDS011;59568;52.128;5.434;2022-12-18T05:34:08;14.68;;;8.07;;
71715;SDS011;59568;52.128;5.434;2022-12-18T05:36:35;17.58;;;6.90;;
71715;SDS011;59568;52.128;5.434;2022-12-18T05:39:02;12.60;;;6.93;;
71715;SDS011;59568;52.128;5.434;2022-12-18T05:41:29;10.17;;;6.03;;
71715;SDS011;59568;52.128;5.434;2022-12-18T05:43:56;18.10;;;6.90;;
71715;SDS011;59568;52.128;5.434;2022-12-18T05:46:22;12.05;;;6.18;;
71715;SDS011;59568;52.128;5.434;2022-12-18T05:48:50;17.17;;;7.88;;
71715;SDS011;59568;52.128;5.434;2022-12-18T05:51:18;13.43;;;7.07;;
71715;SDS011;59568;52.128;5.434;2022-12-18T05:53:47;15.57;;;6.97;;
71715;SDS011;59568;52.128;5.434;2022-12-18T05:56:15;12.80;;;7.60;;
71715;SDS011;59568;52.128;5.434;2022-12-18T05:58:44;12.10;;;6.03;;
71715;SDS011;59568;52.128;5.434;2022-12-18T06:01:15;14.20;;;7.07;;
71715;SDS011;59568;52.128;5.434;2022-12-18T06:03:44;17.05;;;6.78;;
71715;SDS011;59568;52.128;5.434;2022-12-18T06:06:12;18.27;;;7.70;;
71715;SDS011;59568;52.128;5.434;2022-12-18T06:08:40;11.80;;;5.30;;
71715;SDS011;59568;52.128;5.434;2022-12-18T06:11:12;13.68;;;6.18;;
71715;SDS011;59568;52.128;5.434;2022-12-18T06:13:39;15.75;;;7.32;;
71715;SDS011;59568;52.128;5.434;2022-12-18T06:16:06;13.98;;;6.57;;
71715;SDS011;59568;52.128;5.434;2022-12-18T06:18:37;16.23;;;6.43;;
71715;SDS011;59568;52.128;5.434;2022-12-18T06:21:04;17.92;;;7.85;;
71715;SDS011;59568;52.128;5.434;2022-12-18T06:23:30;14.30;;;6.25;;
71715;SDS011;59568;52.128;5.434;2022-12-18T06:25:57;16.52;;;6.53;;
71715;SDS011;59568;52.128;5.434;2022-12-18T06:28:23;14.23;;;6.97;;
71715;SDS011;59568;52.128;5.434;2022-12-18T06:30:50;15.73;;;6.80;;
71715;SDS011;59568;52.128;5.434;2022-12-18T06:33:16;14.77;;;7.07;;
71715;SDS011;59568;52.128;5.434;2022-12-18T06:35:43;13.57;;;6.38;;
71715;SDS011;59568;52.128;5.434;2022-12-18T06:38:09;14.20;;;6.82;;
71715;SDS011;59568;52.128;5.434;2022-12-18T06:40:37;13.63;;;6.10;;
71715;SDS011;59568;52.128;5.434;2022-12-18T06:43:05;14.80;;;6.43;;
71715;SDS011;59568;52.128;5.434;2022-12-18T06:45:32;12.63;;;5.63;;
71715;SDS011;59568;52.128;5.434;2022-12-18T06:47:59;11.93;;;6.72;;
71715;SDS011;59568;52.128;5.434;2022-12-18T06:50:26;12.68;;;6.22;;
71715;SDS011;59568;52.128;5.434;2022-12-18T06:52:52;13.93;;;6.65;;
71715;SDS011;59568;52.128;5.434;2022-12-18T06:55:19;14.73;;;6.37;;
71715;SDS011;59568;52.128;5.434;2022-12-18T06:57:46;16.00;;;6.75;;
71715;SDS011;59568;52.128;5.434;2022-12-18T07:00:12;16.50;;;6.82;;
71715;SDS011;59568;52.128;5.434;2022-12-18T07:02:39;12.18;;;4.95;;
71715;SDS011;59568;52.128;5.434;2022-12-18T07:05:06;16.10;;;6.93;;
71715;SDS011;59568;52.128;5.434;2022-12-18T07:07:36;11.43;;;5.57;;
71715;SDS011;59568;52.128;5.434;2022-12-18T07:10:03;11.88;;;5.13;;
71715;SDS011;59568;52.128;5.434;2022-12-18T07:12:29;13.68;;;5.80;;
71715;SDS011;59568;52.128;5.434;2022-12-18T07:14:56;11.75;;;5.85;;
71715;SDS011;59568;52.128;5.434;2022-12-18T07:17:22;15.75;;;6.72;;
71715;SDS011;59568;52.128;5.434;2022-12-18T07:19:49;11.73;;;6.63;;
71715;SDS011;59568;52.128;5.434;2022-12-18T07:22:15;10.45;;;5.15;;
71715;SDS011;59568;52.128;5.434;2022-12-18T07:24:42;11.63;;;6.25;;
71715;SDS011;59568;52.128;5.434;2022-12-18T07:27:08;14.38;;;6.85;;
71715;SDS011;59568;52.128;5.434;2022-12-18T07:29:35;12.65;;;6.82;;
71715;SDS011;59568;52.128;5.434;2022-12-18T07:32:03;12.97;;;5.50;;
71715;SDS011;59568;52.128;5.434;2022-12-18T07:34:29;12.10;;;5.90;;
71715;SDS011;59568;52.128;5.434;2022-12-18T07:36:56;12.52;;;5.93;;
71715;SDS011;59568;52.128;5.434;2022-12-18T07:39:22;13.13;;;6.70;;
71715;SDS011;59568;52.128;5.434;2022-12-18T07:41:49;12.45;;;5.72;;
71715;SDS011;59568;52.128;5.434;2022-12-18T07:44:35;12.07;;;5.73;;
71715;SDS011;59568;52.128;5.434;2022-12-18T07:47:02;13.13;;;6.68;;
71715;SDS011;59568;52.128;5.434;2022-12-18T07:49:35;15.55;;;6.07;;
71715;SDS011;59568;52.128;5.434;2022-12-18T07:52:02;10.85;;;6.40;;
71715;SDS011;59568;52.128;5.434;2022-12-18T07:54:29;17.23;;;6.85;;
71715;SDS011;59568;52.128;5.434;2022-12-18T07:56:55;13.03;;;5.70;;
71715;SDS011;59568;52.128;5.434;2022-12-18T07:59:22;12.23;;;6.53;;
71715;SDS011;59568;52.128;5.434;2022-12-18T08:01:48;11.98;;;6.20;;
71715;SDS011;59568;52.128;5.434;2022-12-18T08:04:15;12.90;;;6.43;;
71715;SDS011;59568;52.128;5.434;2022-12-18T08:06:41;13.93;;;8.10;;
71715;SDS011;59568;52.128;5.434;2022-12-18T08:09:13;13.97;;;5.80;;
71715;SDS011;59568;52.128;5.434;2022-12-18T08:11:39;16.45;;;6.63;;
71715;SDS011;59568;52.128;5.434;2022-12-18T08:14:06;12.07;;;6.10;;
71715;SDS011;59568;52.128;5.434;2022-12-18T08:16:32;11.90;;;6.50;;
71715;SDS011;59568;52.128;5.434;2022-12-18T08:18:59;13.40;;;6.53;;
71715;SDS011;59568;52.128;5.434;2022-12-18T08:21:27;15.50;;;6.83;;
71715;SDS011;59568;52.128;5.434;2022-12-18T08:23:55;14.45;;;6.93;;
71715;SDS011;59568;52.128;5.434;2022-12-18T08:26:24;13.63;;;7.50;;
71715;SDS011;59568;52.128;5.434;2022-12-18T08:28:53;17.13;;;7.25;;
71715;SDS011;59568;52.128;5.434;2022-12-18T08:31:21;14.88;;;6.28;;
71715;SDS011;59568;52.128;5.434;2022-12-18T08:33:50;14.10;;;7.33;;
71715;SDS011;59568;52.128;5.434;2022-12-18T08:36:19;16.25;;;8.15;;
71715;SDS011;59568;52.128;5.434;2022-12-18T08:38:46;11.57;;;6.72;;
71715;SDS011;59568;52.128;5.434;2022-12-18T08:41:14;12.13;;;6.65;;
71715;SDS011;59568;52.128;5.434;2022-12-18T08:43:41;19.45;;;7.38;;
71715;SDS011;59568;52.128;5.434;2022-12-18T08:46:27;11.20;;;5.93;;
71715;SDS011;59568;52.128;5.434;2022-12-18T08:49:00;13.60;;;6.07;;
71715;SDS011;59568;52.128;5.434;2022-12-18T08:51:27;14.38;;;7.00;;
71715;SDS011;59568;52.128;5.434;2022-12-18T08:53:54;12.27;;;6.68;;
71715;SDS011;59568;52.128;5.434;2022-12-18T08:56:20;13.48;;;7.05;;
71715;SDS011;59568;52.128;5.434;2022-12-18T08:58:47;16.37;;;7.27;;
71715;SDS011;59568;52.128;5.434;2022-12-18T09:01:13;17.55;;;8.73;;
71715;SDS011;59568;52.128;5.434;2022-12-18T09:03:40;14.07;;;7.10;;
71715;SDS011;59568;52.128;5.434;2022-12-18T09:06:08;16.92;;;7.70;;
71715;SDS011;59568;52.128;5.434;2022-12-18T09:08:34;13.13;;;7.40;;
71715;SDS011;59568;52.128;5.434;2022-12-18T09:11:01;17.60;;;8.13;;
71715;SDS011;59568;52.128;5.434;2022-12-18T09:13:27;13.05;;;7.25;;
71715;SDS011;59568;52.128;5.434;2022-12-18T09:15:54;13.20;;;8.20;;
71715;SDS011;59568;52.128;5.434;2022-12-18T09:18:22;13.02;;;7.28;;
71715;SDS011;59568;52.128;5.434;2022-12-18T09:20:50;13.88;;;6.20;;
71715;SDS011;59568;52.128;5.434;2022-12-18T09:23:18;15.43;;;6.70;;
71715;SDS011;59568;52.128;5.434;2022-12-18T09:25:45;15.55;;;7.88;;
71715;SDS011;59568;52.128;5.434;2022-12-18T09:28:13;13.63;;;7.90;;
71715;SDS011;59568;52.128;5.434;2022-12-18T09:30:41;15.95;;;7.20;;
71715;SDS011;59568;52.128;5.434;2022-12-18T09:33:09;14.63;;;7.50;;
71715;SDS011;59568;52.128;5.434;2022-12-18T09:35:38;11.07;;;6.60;;
71715;SDS011;59568;52.128;5.434;2022-12-18T09:38:06;11.88;;;7.47;;
71715;SDS011;59568;52.128;5.434;2022-12-18T09:40:35;15.30;;;7.22;;
71715;SDS011;59568;52.128;5.434;2022-12-18T09:43:05;11.93;;;6.88;;
71715;SDS011;59568;52.128;5.434;2022-12-18T09:45:38;15.00;;;7.75;;
71715;SDS011;59568;52.128;5.434;2022-12-18T09:48:16;12.77;;;6.93;;
71715;SDS011;59568;52.128;5.434;2022-12-18T09:50:56;13.50;;;6.75;;
71715;SDS011;59568;52.128;5.434;2022-12-18T09:53:28;14.95;;;7.47;;
71715;SDS011;59568;52.128;5.434;2022-12-18T09:56:01;13.77;;;7.20;;
71715;SDS011;59568;52.128;5.434;2022-12-18T09:58:41;12.90;;;6.78;;
71715;SDS011;59568;52.128;5.434;2022-12-18T10:01:14;12.03;;;6.60;;
71715;SDS011;59568;52.128;5.434;2022-12-18T10:03:49;12.98;;;6.03;;
71715;SDS011;59568;52.128;5.434;2022-12-18T10:14:34;14.77;;;6.47;;
71715;SDS011;59568;52.128;5.434;2022-12-18T10:17:34;15.18;;;6.82;;
71715;SDS011;59568;52.128;5.434;2022-12-18T10:20:08;13.80;;;6.13;;
71715;SDS011;59568;52.128;5.434;2022-12-18T10:28:28;13.00;;;6.07;;
71715;SDS011;59568;52.128;5.434;2022-12-18T10:30:57;14.00;;;6.55;;
71715;SDS011;59568;52.128;5.434;2022-12-18T10:33:28;12.70;;;6.60;;
71715;SDS011;59568;52.128;5.434;2022-12-18T10:35:56;10.00;;;6.25;;
71715;SDS011;59568;52.128;5.434;2022-12-18T10:38:29;15.10;;;6.93;;
71715;SDS011;59568;52.128;5.434;2022-12-18T10:48:31;14.25;;;6.45;;
71715;SDS011;59568;52.128;5.434;2022-12-18T10:51:21;9.45;;;5.22;;
71715;SDS011;59568;52.128;5.434;2022-12-18T10:54:07;11.50;;;5.47;;
71715;SDS011;59568;52.128;5.434;2022-12-18T10:56:50;12.50;;;5.15;;
71715;SDS011;59568;52.128;5.434;2022-12-18T10:59:17;12.57;;;6.35;;
71715;SDS011;59568;52.128;5.434;2022-12-18T11:04:18;12.00;;;6.90;;
71715;SDS011;59568;52.128;5.434;2022-12-18T11:09:36;13.93;;;6.00;;
71715;SDS011;59568;52.128;5.434;2022-12-18T11:12:08;19.00;;;7.32;;
71715;SDS011;59568;52.128;5.434;2022-12-18T11:14:53;12.68;;;6.00;;
71715;SDS011;59568;52.128;5.434;2022-12-18T11:20:02;8.50;;;5.10;;
71715;SDS011;59568;52.128;5.434;2022-12-18T11:22:35;11.85;;;5.82;;
71715;SDS011;59568;52.128;5.434;2022-12-18T11:25:05;12.32;;;6.40;;
71715;SDS011;59568;52.128;5.434;2022-12-18T11:28:00;11.32;;;5.90;;
71715;SDS011;59568;52.128;5.434;2022-12-18T11:30:30;11.70;;;6.22;;
71715;SDS011;59568;52.128;5.434;2022-12-18T11:33:15;13.47;;;5.83;;
71715;SDS011;59568;52.128;5.434;2022-12-18T11:38:22;10.52;;;5.45;;
71715;SDS011;59568;52.128;5.434;2022-12-18T11:40:54;12.60;;;6.55;;
71715;SDS011;59568;52.128;5.434;2022-12-18T11:51:34;12.93;;;5.93;;
71715;SDS011;59568;52.128;5.434;2022-12-18T11:54:14;12.30;;;6.53;;
71715;SDS011;59568;52.128;5.434;2022-12-18T11:56:44;12.15;;;5.95;;
71715;SDS011;59568;52.128;5.434;2022-12-18T11:59:39;14.67;;;6.43;;
71715;SDS011;59568;52.128;5.434;2022-12-18T12:05:11;10.05;;;6.57;;
71715;SDS011;59568;52.128;5.434;2022-12-18T12:10:48;14.48;;;6.10;;
71715;SDS011;59568;52.128;5.434;2022-12-18T12:16:24;12.18;;;6.22;;
71715;SDS011;59568;52.128;5.434;2022-12-18T12:19:33;11.90;;;5.95;;
71715;SDS011;59568;52.128;5.434;2022-12-18T12:27:48;14.37;;;6.67;;
71715;SDS011;59568;52.128;5.434;2022-12-18T12:39:13;14.02;;;6.72;;
71715;SDS011;59568;52.128;5.434;2022-12-18T12:41:46;13.97;;;6.27;;
71715;SDS011;59568;52.128;5.434;2022-12-18T12:44:34;13.13;;;7.10;;
71715;SDS011;59568;52.128;5.434;2022-12-18T12:47:15;13.07;;;6.65;;
71715;SDS011;59568;52.128;5.434;2022-12-18T12:49:47;13.10;;;6.10;;
71715;SDS011;59568;52.128;5.434;2022-12-18T12:52:50;11.50;;;6.50;;
71715;SDS011;59568;52.128;5.434;2022-12-18T12:55:23;12.90;;;6.40;;
71715;SDS011;59568;52.128;5.434;2022-12-18T12:57:55;10.63;;;5.80;;
71715;SDS011;59568;52.128;5.434;2022-12-18T13:00:24;13.60;;;6.32;;
71715;SDS011;59568;52.128;5.434;2022-12-18T13:02:58;14.20;;;6.57;;
71715;SDS011;59568;52.128;5.434;2022-12-18T13:06:04;10.43;;;5.97;;
71715;SDS011;59568;52.128;5.434;2022-12-18T13:08:56;12.63;;;5.93;;
71715;SDS011;59568;52.128;5.434;2022-12-18T13:11:47;11.30;;;6.13;;
71715;SDS011;59568;52.128;5.434;2022-12-18T13:17:15;14.52;;;7.05;;
71715;SDS011;59568;52.128;5.434;2022-12-18T13:19:51;13.05;;;7.10;;
71715;SDS011;59568;52.128;5.434;2022-12-18T13:25:01;13.70;;;6.63;;
71715;SDS011;59568;52.128;5.434;2022-12-18T13:38:22;14.75;;;6.47;;
71715;SDS011;59568;52.128;5.434;2022-12-18T13:41:10;13.32;;;6.43;;
71715;SDS011;59568;52.128;5.434;2022-12-18T13:43:51;13.90;;;7.10;;
71715;SDS011;59568;52.128;5.434;2022-12-18T13:49:00;14.07;;;6.60;;
71715;SDS011;59568;52.128;5.434;2022-12-18T13:51:31;12.07;;;6.32;;
71715;SDS011;59568;52.128;5.434;2022-12-18T13:54:06;12.88;;;6.38;;
71715;SDS011;59568;52.128;5.434;2022-12-18T13:56:45;14.32;;;6.60;;
71715;SDS011;59568;52.128;5.434;2022-12-18T13:59:23;14.18;;;7.35;;
71715;SDS011;59568;52.128;5.434;2022-12-18T14:01:53;12.23;;;6.80;;
71715;SDS011;59568;52.128;5.434;2022-12-18T14:04:25;13.10;;;6.55;;
71715;SDS011;59568;52.128;5.434;2022-12-18T14:07:05;13.05;;;6.50;;
71715;SDS011;59568;52.128;5.434;2022-12-18T14:12:37;12.75;;;6.43;;
71715;SDS011;59568;52.128;5.434;2022-12-18T14:17:53;13.18;;;6.28;;
71715;SDS011;59568;52.128;5.434;2022-12-18T14:20:24;13.13;;;6.57;;
71715;SDS011;59568;52.128;5.434;2022-12-18T14:22:51;14.05;;;7.03;;
71715;SDS011;59568;52.128;5.434;2022-12-18T14:25:19;13.00;;;6.35;;
71715;SDS011;59568;52.128;5.434;2022-12-18T14:30:42;14.68;;;6.97;;
71715;SDS011;59568;52.128;5.434;2022-12-18T14:33:11;12.93;;;6.57;;
71715;SDS011;59568;52.128;5.434;2022-12-18T14:35:41;14.95;;;7.45;;
71715;SDS011;59568;52.128;5.434;2022-12-18T14:40:42;13.23;;;7.13;;
71715;SDS011;59568;52.128;5.434;2022-12-18T14:43:10;13.82;;;6.50;;
71715;SDS011;59568;52.128;5.434;2022-12-18T14:45:39;16.05;;;6.93;;
71715;SDS011;59568;52.128;5.434;2022-12-18T14:48:13;12.82;;;6.10;;
71715;SDS011;59568;52.128;5.434;2022-12-18T14:53:37;14.70;;;6.57;;
71715;SDS011;59568;52.128;5.434;2022-12-18T14:56:17;15.88;;;6.82;;
71715;SDS011;59568;52.128;5.434;2022-12-18T14:59:02;15.68;;;7.10;;
71715;SDS011;59568;52.128;5.434;2022-12-18T15:04:05;12.85;;;6.85;;
71715;SDS011;59568;52.128;5.434;2022-12-18T15:07:02;13.63;;;7.30;;
71715;SDS011;59568;52.128;5.434;2022-12-18T15:10:08;15.30;;;7.60;;
71715;SDS011;59568;52.128;5.434;2022-12-18T15:12:47;19.77;;;8.40;;
71715;SDS011;59568;52.128;5.434;2022-12-18T15:15:58;14.82;;;7.30;;
71715;SDS011;59568;52.128;5.434;2022-12-18T15:23:35;17.20;;;8.02;;
71715;SDS011;59568;52.128;5.434;2022-12-18T15:26:19;13.98;;;7.70;;
71715;SDS011;59568;52.128;5.434;2022-12-18T15:28:54;13.27;;;7.65;;
71715;SDS011;59568;52.128;5.434;2022-12-18T15:31:24;17.00;;;7.25;;
71715;SDS011;59568;52.128;5.434;2022-12-18T15:36:23;14.63;;;7.90;;
71715;SDS011;59568;52.128;5.434;2022-12-18T15:38:53;14.80;;;7.82;;
71715;SDS011;59568;52.128;5.434;2022-12-18T15:41:30;14.50;;;7.20;;
71715;SDS011;59568;52.128;5.434;2022-12-18T15:44:01;16.10;;;7.82;;
71715;SDS011;59568;52.128;5.434;2022-12-18T15:46:28;15.43;;;7.60;;
71715;SDS011;59568;52.128;5.434;2022-12-18T15:48:57;18.05;;;8.25;;
71715;SDS011;59568;52.128;5.434;2022-12-18T15:51:34;16.73;;;7.95;;
71715;SDS011;59568;52.128;5.434;2022-12-18T15:54:03;16.25;;;7.35;;
71715;SDS011;59568;52.128;5.434;2022-12-18T15:56:32;15.00;;;7.82;;
71715;SDS011;59568;52.128;5.434;2022-12-18T15:59:18;15.67;;;7.53;;
71715;SDS011;59568;52.128;5.434;2022-12-18T16:01:46;22.98;;;7.82;;
71715;SDS011;59568;52.128;5.434;2022-12-18T16:04:16;18.52;;;9.02;;
71715;SDS011;59568;52.128;5.434;2022-12-18T16:06:46;16.80;;;7.93;;
71715;SDS011;59568;52.128;5.434;2022-12-18T16:09:33;15.57;;;7.57;;
71715;SDS011;59568;52.128;5.434;2022-12-18T16:11:59;16.40;;;8.87;;
71715;SDS011;59568;52.128;5.434;2022-12-18T16:14:27;19.42;;;8.13;;
71715;SDS011;59568;52.128;5.434;2022-12-18T16:16:57;16.25;;;8.20;;
71715;SDS011;59568;52.128;5.434;2022-12-18T16:19:25;19.80;;;8.35;;
71715;SDS011;59568;52.128;5.434;2022-12-18T16:21:52;18.05;;;8.32;;
71715;SDS011;59568;52.128;5.434;2022-12-18T16:24:22;17.73;;;8.10;;
71715;SDS011;59568;52.128;5.434;2022-12-18T16:26:51;18.83;;;9.43;;
71715;SDS011;59568;52.128;5.434;2022-12-18T16:29:19;15.27;;;8.00;;
71715;SDS011;59568;52.128;5.434;2022-12-18T16:31:51;20.77;;;8.80;;
71715;SDS011;59568;52.128;5.434;2022-12-18T16:36:52;17.20;;;9.23;;
71715;SDS011;59568;52.128;5.434;2022-12-18T16:39:23;24.40;;;8.95;;
71715;SDS011;59568;52.128;5.434;2022-12-18T16:41:50;17.52;;;8.65;;
71715;SDS011;59568;52.128;5.434;2022-12-18T16:44:16;21.60;;;9.25;;
71715;SDS011;59568;52.128;5.434;2022-12-18T16:46:43;19.30;;;9.52;;
71715;SDS011;59568;52.128;5.434;2022-12-18T16:49:15;19.53;;;7.93;;
71715;SDS011;59568;52.128;5.434;2022-12-18T16:51:42;19.65;;;9.00;;
71715;SDS011;59568;52.128;5.434;2022-12-18T16:54:09;20.77;;;9.48;;
71715;SDS011;59568;52.128;5.434;2022-12-18T16:56:43;22.20;;;9.27;;
71715;SDS011;59568;52.128;5.434;2022-12-18T16:59:10;18.48;;;8.60;;
71715;SDS011;59568;52.128;5.434;2022-12-18T17:01:37;18.37;;;9.10;;
71715;SDS011;59568;52.128;5.434;2022-12-18T17:04:05;18.77;;;9.32;;
71715;SDS011;59568;52.128;5.434;2022-12-18T17:06:33;21.48;;;10.35;;
71715;SDS011;59568;52.128;5.434;2022-12-18T17:09:05;26.98;;;10.93;;
71715;SDS011;59568;52.128;5.434;2022-12-18T17:11:34;19.70;;;9.00;;
71715;SDS011;59568;52.128;5.434;2022-12-18T17:14:12;18.23;;;9.20;;
71715;SDS011;59568;52.128;5.434;2022-12-18T17:16:40;21.92;;;11.45;;